Time;durP1;ratioP1;P1;durP2;ratioP2;P2;SDS_P1;SDS_P2;PMS_P1;PMS_P2;Temp;Humidity;BMP_temperature;BMP_pressure;BME280_temperature;BME280_humidity;BME280_pressure;Samples;Min_cycle;Max_cycle;Signal;HPM_P1;HPM_P2
2023/01/09 00:02:07;;;;;;;0.10;0.10;;;;;;;;;;7380409;19;20599;-68
2023/01/09 00:04:36;;;;;;;0.10;0.10;;;;;;;;;;7380361;19;20599;-68
2023/01/09 00:07:05;;;;;;;0.10;0.10;;;;;;;;;;7378906;19;20654;-68
2023/01/09 00:09:34;;;;;;;0.10;0.10;;;;;;;;;;7378314;19;20622;-68
2023/01/09 00:12:06;;;;;;;0.10;0.10;;;;;;;;;;7380064;19;20725;-68
2023/01/09 00:14:35;;;;;;;0.10;0.10;;;;;;;;;;7378553;19;20789;-68
2023/01/09 00:17:04;;;;;;;0.10;0.10;;;;;;;;;;7379728;19;20611;-68
2023/01/09 00:19:33;;;;;;;0.10;0.10;;;;;;;;;;7380940;19;20709;-69
2023/01/09 00:22:01;;;;;;;0.00;0.00;;;;;;;;;;7379813;19;20733;-68
2023/01/09 00:24:31;;;;;;;0.10;0.10;;;;;;;;;;7379466;19;20599;-69
2023/01/09 00:27:00;;;;;;;0.10;0.10;;;;;;;;;;7380101;19;20638;-68
2023/01/09 00:29:31;;;;;;;0.10;0.10;;;;;;;;;;7377935;19;20685;-68
2023/01/09 00:32:00;;;;;;;0.10;0.10;;;;;;;;;;7379846;19;20713;-68
2023/01/09 00:34:30;;;;;;;0.00;0.00;;;;;;;;;;7378230;19;20742;-67
2023/01/09 00:36:59;;;;;;;0.10;0.10;;;;;;;;;;7378127;19;20746;-68
2023/01/09 00:39:28;;;;;;;0.00;0.00;;;;;;;;;;7378782;19;20627;-69
2023/01/09 00:41:58;;;;;;;0.10;0.10;;;;;;;;;;7378876;19;20634;-68
2023/01/09 00:44:29;;;;;;;0.10;0.10;;;;;;;;;;7379064;19;20611;-68
2023/01/09 00:47:03;;;;;;;0.10;0.10;;;;;;;;;;7376123;19;20740;-67
2023/01/09 00:49:36;;;;;;;0.10;0.10;;;;;;;;;;7374617;19;20656;-69
2023/01/09 00:52:06;;;;;;;0.10;0.10;;;;;;;;;;7375334;19;20746;-68
2023/01/09 00:54:35;;;;;;;0.10;0.10;;;;;;;;;;7377337;19;20618;-67
2023/01/09 00:57:04;;;;;;;0.10;0.10;;;;;;;;;;7377768;19;20667;-68
2023/01/09 00:59:33;;;;;;;0.10;0.10;;;;;;;;;;7375582;19;20685;-68
2023/01/09 01:02:05;;;;;;;0.10;0.10;;;;;;;;;;7376942;19;20648;-69
2023/01/09 01:09:56;;;;;;;0.10;0.10;;;;;;;;;;7378597;19;20654;-68
2023/01/09 01:12:25;;;;;;;0.10;0.10;;;;;;;;;;7377840;19;20583;-69
2023/01/09 01:14:54;;;;;;;0.10;0.10;;;;;;;;;;7368818;19;20638;-68
2023/01/09 01:17:26;;;;;;;0.10;0.10;;;;;;;;;;7376423;19;20687;-68
2023/01/09 01:19:55;;;;;;;0.10;0.10;;;;;;;;;;7376409;19;20749;-68
2023/01/09 01:22:24;;;;;;;0.10;0.10;;;;;;;;;;7374476;19;20749;-68
2023/01/09 01:24:53;;;;;;;0.10;0.10;;;;;;;;;;7375248;19;20799;-68
2023/01/09 01:27:22;;;;;;;0.10;0.10;;;;;;;;;;7376275;19;20693;-67
2023/01/09 01:29:51;;;;;;;0.10;0.10;;;;;;;;;;7375984;19;20673;-68
2023/01/09 01:32:20;;;;;;;0.10;0.10;;;;;;;;;;7377079;19;20723;-69
2023/01/09 01:34:51;;;;;;;0.10;0.10;;;;;;;;;;7375550;19;20742;-68
2023/01/09 01:37:20;;;;;;;0.10;0.10;;;;;;;;;;7373888;19;20654;-68
2023/01/09 01:39:49;;;;;;;0.10;0.10;;;;;;;;;;7377663;19;20698;-68
2023/01/09 01:42:18;;;;;;;0.10;0.10;;;;;;;;;;7377905;19;20611;-69
2023/01/09 01:45:04;;;;;;;0.10;0.10;;;;;;;;;;7376171;19;20647;-68
2023/01/09 01:47:35;;;;;;;0.10;0.10;;;;;;;;;;7374280;19;20721;-68
2023/01/09 01:50:10;;;;;;;0.10;0.10;;;;;;;;;;7376643;19;20815;-68
2023/01/09 01:52:39;;;;;;;0.10;0.10;;;;;;;;;;7377922;19;21463;-68
2023/01/09 01:55:10;;;;;;;0.10;0.10;;;;;;;;;;7375258;19;20607;-69
2023/01/09 01:57:40;;;;;;;0.00;0.00;;;;;;;;;;7377102;19;20615;-68
2023/01/09 02:00:09;;;;;;;0.10;0.10;;;;;;;;;;7374121;19;20741;-68
2023/01/09 02:02:38;;;;;;;0.00;0.00;;;;;;;;;;7375947;19;20595;-69
2023/01/09 02:05:11;;;;;;;0.00;0.00;;;;;;;;;;7376500;19;20713;-68
2023/01/09 02:07:40;;;;;;;0.10;0.10;;;;;;;;;;7375360;19;20692;-69
2023/01/09 02:10:09;;;;;;;0.03;0.03;;;;;;;;;;7376513;19;20645;-68
2023/01/09 02:12:38;;;;;;;0.10;0.10;;;;;;;;;;7373113;19;20729;-68
2023/01/09 02:15:10;;;;;;;0.10;0.10;;;;;;;;;;7374801;19;20663;-68
2023/01/09 02:17:56;;;;;;;0.10;0.10;;;;;;;;;;7375449;19;20663;-68
2023/01/09 02:20:38;;;;;;;0.00;0.00;;;;;;;;;;7376305;19;20607;-68
2023/01/09 02:23:27;;;;;;;0.00;0.00;;;;;;;;;;7373059;19;20771;-68
2023/01/09 02:26:05;;;;;;;0.10;0.10;;;;;;;;;;7376760;19;20639;-68
2023/01/09 02:28:56;;;;;;;0.00;0.00;;;;;;;;;;7374530;19;20672;-69
2023/01/09 02:31:30;;;;;;;0.00;0.00;;;;;;;;;;7375919;19;21484;-68
2023/01/09 02:34:02;;;;;;;0.10;0.10;;;;;;;;;;7374515;19;20617;-68
2023/01/09 02:36:34;;;;;;;0.10;0.10;;;;;;;;;;7373406;19;20710;-68
2023/01/09 02:39:10;;;;;;;0.10;0.10;;;;;;;;;;7374969;19;20728;-68
2023/01/09 02:41:40;;;;;;;0.10;0.10;;;;;;;;;;7374172;19;20668;-68
2023/01/09 02:44:23;;;;;;;0.10;0.10;;;;;;;;;;7375944;19;20726;-68
2023/01/09 02:47:04;;;;;;;0.10;0.10;;;;;;;;;;7375128;19;20659;-68
2023/01/09 02:49:34;;;;;;;0.00;0.00;;;;;;;;;;7373835;19;20772;-68
2023/01/09 02:52:08;;;;;;;0.10;0.10;;;;;;;;;;7375842;19;20693;-68
2023/01/09 02:54:43;;;;;;;0.10;0.10;;;;;;;;;;7372717;19;20664;-69
2023/01/09 02:57:15;;;;;;;0.10;0.10;;;;;;;;;;7374070;19;20717;-68
2023/01/09 02:59:53;;;;;;;0.10;0.10;;;;;;;;;;7372939;19;20627;-68
2023/01/09 03:02:33;;;;;;;0.10;0.10;;;;;;;;;;7375070;19;20736;-68
2023/01/09 03:05:08;;;;;;;0.10;0.10;;;;;;;;;;7374438;19;20602;-68
2023/01/09 03:07:39;;;;;;;0.10;0.10;;;;;;;;;;7372407;19;20780;-68
2023/01/09 03:10:11;;;;;;;0.10;0.10;;;;;;;;;;7375498;19;20614;-69
2023/01/09 03:12:41;;;;;;;0.10;0.10;;;;;;;;;;7371143;19;20764;-68
2023/01/09 03:15:12;;;;;;;0.00;0.00;;;;;;;;;;7370258;19;20741;-68
2023/01/09 03:17:45;;;;;;;0.10;0.10;;;;;;;;;;7373711;19;20619;-68
2023/01/09 03:20:15;;;;;;;0.10;0.10;;;;;;;;;;7373289;19;20596;-68
2023/01/09 03:22:48;;;;;;;0.00;0.00;;;;;;;;;;7372711;19;20722;-68
2023/01/09 03:25:17;;;;;;;0.00;0.00;;;;;;;;;;7371816;19;20615;-69
2023/01/09 03:27:46;;;;;;;0.00;0.00;;;;;;;;;;7370359;19;20800;-68
2023/01/09 03:30:15;;;;;;;0.10;0.10;;;;;;;;;;7372927;19;20733;-68
2023/01/09 03:32:46;;;;;;;0.10;0.10;;;;;;;;;;7374670;19;20579;-69
2023/01/09 03:35:15;;;;;;;0.10;0.10;;;;;;;;;;7370512;19;20635;-68
2023/01/09 03:37:44;;;;;;;0.00;0.00;;;;;;;;;;7369591;19;20666;-68
2023/01/09 03:40:13;;;;;;;0.10;0.10;;;;;;;;;;7371972;19;20733;-68
2023/01/09 03:42:42;;;;;;;0.10;0.10;;;;;;;;;;7372823;19;20729;-68
2023/01/09 03:45:12;;;;;;;0.10;0.10;;;;;;;;;;7370352;19;20773;-69
2023/01/09 03:47:40;;;;;;;0.10;0.10;;;;;;;;;;7370021;19;20805;-68
2023/01/09 03:50:13;;;;;;;0.10;0.10;;;;;;;;;;7373436;19;20669;-68
2023/01/09 03:52:41;;;;;;;0.10;0.10;;;;;;;;;;7373887;19;20603;-69
2023/01/09 03:55:11;;;;;;;0.03;0.03;;;;;;;;;;7370478;19;20726;-69
2023/01/09 03:57:40;;;;;;;0.10;0.10;;;;;;;;;;7371565;19;20708;-69
2023/01/09 04:00:10;;;;;;;0.00;0.00;;;;;;;;;;7372767;19;20648;-69
2023/01/09 04:02:42;;;;;;;0.10;0.10;;;;;;;;;;7370531;19;20630;-70
2023/01/09 04:05:13;;;;;;;0.10;0.10;;;;;;;;;;7369150;19;20615;-69
2023/01/09 04:07:42;;;;;;;0.10;0.10;;;;;;;;;;7370319;19;20626;-70
2023/01/09 04:10:12;;;;;;;0.10;0.10;;;;;;;;;;7371434;19;20647;-70
2023/01/09 04:12:41;;;;;;;0.00;0.00;;;;;;;;;;7370698;19;20706;-70
2023/01/09 04:15:10;;;;;;;0.10;0.10;;;;;;;;;;7371267;19;20622;-69
2023/01/09 04:17:39;;;;;;;0.10;0.10;;;;;;;;;;7368715;19;20789;-70
2023/01/09 04:20:09;;;;;;;0.00;0.00;;;;;;;;;;7373436;19;20631;-70
2023/01/09 04:22:41;;;;;;;0.10;0.10;;;;;;;;;;7371747;19;20606;-70
2023/01/09 04:25:10;;;;;;;0.10;0.10;;;;;;;;;;7372838;19;21505;-70
2023/01/09 04:27:39;;;;;;;0.10;0.10;;;;;;;;;;7376724;19;21374;-70
2023/01/09 04:30:09;;;;;;;0.00;0.00;;;;;;;;;;7376879;19;20732;-71
2023/01/09 04:32:37;;;;;;;0.10;0.10;;;;;;;;;;7378677;19;20626;-70
2023/01/09 04:35:07;;;;;;;0.10;0.10;;;;;;;;;;7376694;19;20739;-70
2023/01/09 04:37:38;;;;;;;0.00;0.00;;;;;;;;;;7379212;19;20668;-70
2023/01/09 04:40:11;;;;;;;0.10;0.10;;;;;;;;;;7376979;19;20638;-70
2023/01/09 04:42:40;;;;;;;0.10;0.10;;;;;;;;;;7378055;19;20622;-70
2023/01/09 04:45:10;;;;;;;0.10;0.10;;;;;;;;;;7376316;19;20610;-70
2023/01/09 04:47:39;;;;;;;0.10;0.10;;;;;;;;;;7375052;19;21385;-70
2023/01/09 04:50:09;;;;;;;0.03;0.03;;;;;;;;;;7377866;19;20626;-71
2023/01/09 04:52:38;;;;;;;0.10;0.10;;;;;;;;;;7376889;19;20685;-70
2023/01/09 04:55:10;;;;;;;0.10;0.10;;;;;;;;;;7377373;19;21426;-70
2023/01/09 04:57:39;;;;;;;0.00;0.00;;;;;;;;;;7374958;19;20666;-70
2023/01/09 05:00:11;;;;;;;0.00;0.00;;;;;;;;;;7377386;19;20606;-69
2023/01/09 05:02:40;;;;;;;0.10;0.10;;;;;;;;;;7376577;19;20737;-70
2023/01/09 05:05:11;;;;;;;0.10;0.10;;;;;;;;;;7375589;19;20618;-70
2023/01/09 05:07:40;;;;;;;0.10;0.10;;;;;;;;;;7375216;19;20739;-70
2023/01/09 05:10:12;;;;;;;0.10;0.10;;;;;;;;;;7377110;19;20749;-70
2023/01/09 05:12:42;;;;;;;0.00;0.00;;;;;;;;;;7375765;19;20622;-70
2023/01/09 05:15:11;;;;;;;0.10;0.10;;;;;;;;;;7376752;19;20630;-70
2023/01/09 05:17:40;;;;;;;0.10;0.10;;;;;;;;;;7374470;19;20682;-70
2023/01/09 05:20:09;;;;;;;0.10;0.10;;;;;;;;;;7377426;19;20611;-71
2023/01/09 05:22:38;;;;;;;0.10;0.10;;;;;;;;;;7377940;19;20705;-71
2023/01/09 05:25:07;;;;;;;0.10;0.10;;;;;;;;;;7373911;19;20622;-72
2023/01/09 05:27:42;;;;;;;0.10;0.10;;;;;;;;;;7376150;19;20746;-71
2023/01/09 05:30:12;;;;;;;0.10;0.10;;;;;;;;;;7378379;19;20571;-72
2023/01/09 05:32:41;;;;;;;0.10;0.10;;;;;;;;;;7378932;19;20660;-71
2023/01/09 05:35:10;;;;;;;0.10;0.10;;;;;;;;;;7375239;19;20626;-71
2023/01/09 05:37:39;;;;;;;0.10;0.10;;;;;;;;;;7373206;19;20773;-71
2023/01/09 05:40:09;;;;;;;0.00;0.00;;;;;;;;;;7378579;19;20611;-70
2023/01/09 05:42:40;;;;;;;0.07;0.07;;;;;;;;;;7378702;19;20636;-71
2023/01/09 05:45:10;;;;;;;0.00;0.00;;;;;;;;;;7377077;19;20638;-72
2023/01/09 05:47:39;;;;;;;0.10;0.10;;;;;;;;;;7376461;19;20623;-70
2023/01/09 05:50:08;;;;;;;0.10;0.10;;;;;;;;;;7377031;19;20652;-71
2023/01/09 05:52:37;;;;;;;0.00;0.00;;;;;;;;;;7378354;19;20611;-70
2023/01/09 05:55:07;;;;;;;0.03;0.03;;;;;;;;;;7376511;19;20619;-70
2023/01/09 05:57:36;;;;;;;0.10;0.10;;;;;;;;;;7373629;19;20801;-70
2023/01/09 06:00:08;;;;;;;0.10;0.10;;;;;;;;;;7374368;19;20690;-70
2023/01/09 06:02:37;;;;;;;0.10;0.10;;;;;;;;;;7375336;19;20630;-68
2023/01/09 06:05:06;;;;;;;0.10;0.10;;;;;;;;;;7376807;19;21003;-69
2023/01/09 06:07:38;;;;;;;0.00;0.00;;;;;;;;;;7376610;19;20670;-68
2023/01/09 06:10:07;;;;;;;0.10;0.10;;;;;;;;;;7374906;19;21313;-68
2023/01/09 06:12:36;;;;;;;0.00;0.00;;;;;;;;;;7375310;19;20657;-68
2023/01/09 06:15:08;;;;;;;0.10;0.10;;;;;;;;;;7373764;19;20636;-68
2023/01/09 06:17:37;;;;;;;0.00;0.00;;;;;;;;;;7374173;19;20805;-68
2023/01/09 06:20:06;;;;;;;0.10;0.10;;;;;;;;;;7376010;19;20607;-68
2023/01/09 06:22:35;;;;;;;0.00;0.00;;;;;;;;;;7375766;19;20721;-68
2023/01/09 06:25:04;;;;;;;0.10;0.10;;;;;;;;;;7374875;19;20591;-68
2023/01/09 06:27:33;;;;;;;0.10;0.10;;;;;;;;;;7375761;19;20703;-69
2023/01/09 06:30:02;;;;;;;0.10;0.10;;;;;;;;;;7374280;19;20646;-69
2023/01/09 06:32:33;;;;;;;0.10;0.10;;;;;;;;;;7374767;19;20627;-70
2023/01/09 06:35:02;;;;;;;0.10;0.10;;;;;;;;;;7375008;19;20741;-69
2023/01/09 06:37:32;;;;;;;0.10;0.10;;;;;;;;;;7375693;19;20627;-70
2023/01/09 06:40:01;;;;;;;0.00;0.00;;;;;;;;;;7373283;19;20738;-69
2023/01/09 06:42:30;;;;;;;0.00;0.00;;;;;;;;;;7369350;19;20635;-69
2023/01/09 06:44:59;;;;;;;0.10;0.10;;;;;;;;;;7371547;19;20994;-68
2023/01/09 06:47:27;;;;;;;0.10;0.10;;;;;;;;;;7374082;19;20715;-68
2023/01/09 06:49:59;;;;;;;0.10;0.10;;;;;;;;;;7373346;19;20639;-68
2023/01/09 06:52:28;;;;;;;0.10;0.10;;;;;;;;;;7376342;19;20723;-67
2023/01/09 06:54:57;;;;;;;0.10;0.10;;;;;;;;;;7374175;19;20649;-69
2023/01/09 06:57:26;;;;;;;0.07;0.07;;;;;;;;;;7374981;19;21403;-67
2023/01/09 06:59:55;;;;;;;0.10;0.10;;;;;;;;;;7376196;19;20648;-68
2023/01/09 07:02:24;;;;;;;0.00;0.00;;;;;;;;;;7374333;19;20635;-68
2023/01/09 07:04:53;;;;;;;0.10;0.10;;;;;;;;;;7375411;19;20587;-68
2023/01/09 07:07:25;;;;;;;0.00;0.00;;;;;;;;;;7373423;19;20707;-68
2023/01/09 07:09:54;;;;;;;0.10;0.10;;;;;;;;;;7373463;19;20634;-69
2023/01/09 07:12:23;;;;;;;0.10;0.10;;;;;;;;;;7375506;19;20702;-68
2023/01/09 07:14:52;;;;;;;0.10;0.10;;;;;;;;;;7374553;19;20603;-68
2023/01/09 07:17:21;;;;;;;0.10;0.10;;;;;;;;;;7374137;19;20749;-68
2023/01/09 07:19:50;;;;;;;0.00;0.00;;;;;;;;;;7374658;19;20623;-68
2023/01/09 07:22:18;;;;;;;0.00;0.00;;;;;;;;;;7375103;19;20650;-68
2023/01/09 07:24:50;;;;;;;0.10;0.10;;;;;;;;;;7372444;19;20745;-69
2023/01/09 07:27:20;;;;;;;0.00;0.00;;;;;;;;;;7371744;19;20706;-68
2023/01/09 07:29:50;;;;;;;0.07;0.07;;;;;;;;;;7374254;19;20599;-68
2023/01/09 07:32:19;;;;;;;0.00;0.00;;;;;;;;;;7374289;19;20677;-68
2023/01/09 07:34:48;;;;;;;0.00;0.00;;;;;;;;;;7372473;19;21543;-68
2023/01/09 07:37:17;;;;;;;0.10;0.10;;;;;;;;;;7372346;19;20615;-68
2023/01/09 07:39:45;;;;;;;0.10;0.10;;;;;;;;;;7374394;19;20607;-68
2023/01/09 07:42:17;;;;;;;0.00;0.00;;;;;;;;;;7375286;19;20721;-68
2023/01/09 07:44:46;;;;;;;0.00;0.00;;;;;;;;;;7371807;19;20638;-68
2023/01/09 07:47:15;;;;;;;0.10;0.10;;;;;;;;;;7371492;19;20704;-68
2023/01/09 07:49:44;;;;;;;0.10;0.10;;;;;;;;;;7374682;19;20599;-68
2023/01/09 07:52:13;;;;;;;0.10;0.10;;;;;;;;;;7373133;19;20720;-69
2023/01/09 07:54:42;;;;;;;0.10;0.10;;;;;;;;;;7373816;19;20646;-68
2023/01/09 07:57:11;;;;;;;0.03;0.03;;;;;;;;;;7372879;19;20650;-68
2023/01/09 07:59:43;;;;;;;0.10;0.10;;;;;;;;;;7372050;19;20622;-68
2023/01/09 08:02:12;;;;;;;0.10;0.10;;;;;;;;;;7379385;19;20713;-68
2023/01/09 08:04:41;;;;;;;0.10;0.10;;;;;;;;;;7378683;19;20640;-68
2023/01/09 08:07:10;;;;;;;0.00;0.00;;;;;;;;;;7379605;19;20756;-68
2023/01/09 08:09:38;;;;;;;0.10;0.10;;;;;;;;;;7379585;19;20622;-69
2023/01/09 08:12:08;;;;;;;0.10;0.10;;;;;;;;;;7381440;19;20595;-68
2023/01/09 08:14:37;;;;;;;0.10;0.10;;;;;;;;;;7380888;19;20587;-68
2023/01/09 08:17:10;;;;;;;0.03;0.03;;;;;;;;;;7379726;19;20940;-68
2023/01/09 08:19:39;;;;;;;0.10;0.10;;;;;;;;;;7380983;19;20595;-68
2023/01/09 08:22:08;;;;;;;0.00;0.00;;;;;;;;;;7381263;19;20599;-68
2023/01/09 08:24:37;;;;;;;0.10;0.10;;;;;;;;;;7380482;19;20592;-68
2023/01/09 08:27:06;;;;;;;0.00;0.00;;;;;;;;;;7377812;19;20647;-68
2023/01/09 08:29:34;;;;;;;0.10;0.10;;;;;;;;;;7381773;19;20651;-67
2023/01/09 08:32:03;;;;;;;0.10;0.10;;;;;;;;;;7380657;19;20591;-68
2023/01/09 08:34:35;;;;;;;0.10;0.10;;;;;;;;;;7380601;19;20714;-68
2023/01/09 08:37:04;;;;;;;0.00;0.00;;;;;;;;;;7376852;19;20662;-68
2023/01/09 08:39:34;;;;;;;0.10;0.10;;;;;;;;;;7380819;19;20722;-68
2023/01/09 08:47:32;;;;;;;0.07;0.07;;;;;;;;;;7376230;19;20666;-68
2023/01/09 08:50:03;;;;;;;0.10;0.10;;;;;;;;;;7378083;19;20661;-68
2023/01/09 08:52:32;;;;;;;0.10;0.10;;;;;;;;;;7377015;19;20702;-68
2023/01/09 08:55:01;;;;;;;0.10;0.10;;;;;;;;;;7379964;19;20681;-68
2023/01/09 08:57:30;;;;;;;0.10;0.10;;;;;;;;;;7378131;19;20762;-68
2023/01/09 08:59:59;;;;;;;0.10;0.10;;;;;;;;;;7379729;19;20733;-68
2023/01/09 09:02:28;;;;;;;0.10;0.10;;;;;;;;;;7379160;19;20717;-67
2023/01/09 09:04:58;;;;;;;0.00;0.00;;;;;;;;;;7376867;19;20634;-68
2023/01/09 09:07:29;;;;;;;0.10;0.10;;;;;;;;;;7377744;19;20665;-67
2023/01/09 09:09:58;;;;;;;0.10;0.10;;;;;;;;;;7377773;19;20645;-66
2023/01/09 09:12:27;;;;;;;0.10;0.10;;;;;;;;;;7376442;19;20607;-67
2023/01/09 09:17:39;;;;;;;0.10;0.10;;;;;;;;;;7376593;19;20684;-67
2023/01/09 09:20:09;;;;;;;0.10;0.10;;;;;;;;;;7376724;19;20656;-67
2023/01/09 09:22:40;;;;;;;0.10;0.10;;;;;;;;;;7379796;19;20756;-68
2023/01/09 09:25:10;;;;;;;0.00;0.00;;;;;;;;;;7376797;19;20638;-68
2023/01/09 09:27:38;;;;;;;0.10;0.10;;;;;;;;;;7378806;19;20627;-68
2023/01/09 09:30:08;;;;;;;0.00;0.00;;;;;;;;;;7379493;19;20607;-67
2023/01/09 09:32:37;;;;;;;0.10;0.10;;;;;;;;;;7379261;19;20722;-67
2023/01/09 09:35:07;;;;;;;0.10;0.10;;;;;;;;;;7377984;19;20639;-68
2023/01/09 09:37:36;;;;;;;0.10;0.10;;;;;;;;;;7376836;19;20671;-68
2023/01/09 09:40:08;;;;;;;0.10;0.10;;;;;;;;;;7377452;19;20656;-68
2023/01/09 09:45:40;;;;;;;0.00;0.00;;;;;;;;;;7377615;19;20678;-68
2023/01/09 09:48:17;;;;;;;0.10;0.10;;;;;;;;;;7375644;19;20623;-68
2023/01/09 09:50:58;;;;;;;0.10;0.10;;;;;;;;;;7376354;19;20623;-68
2023/01/09 09:53:29;;;;;;;0.10;0.10;;;;;;;;;;7375620;19;20737;-68
2023/01/09 09:56:01;;;;;;;0.10;0.10;;;;;;;;;;7375808;19;20635;-68
2023/01/09 09:58:31;;;;;;;0.10;0.10;;;;;;;;;;7374294;19;20793;-67
2023/01/09 10:01:01;;;;;;;0.00;0.00;;;;;;;;;;7374985;19;20623;-67
2023/01/09 10:03:34;;;;;;;0.10;0.10;;;;;;;;;;7376442;19;20733;-67
2023/01/09 10:06:06;;;;;;;0.10;0.10;;;;;;;;;;7375669;19;20646;-68
2023/01/09 10:08:39;;;;;;;0.10;0.10;;;;;;;;;;7379055;19;20608;-68
2023/01/09 10:11:13;;;;;;;0.10;0.10;;;;;;;;;;7376883;19;20639;-68
2023/01/09 10:16:34;;;;;;;0.00;0.00;;;;;;;;;;7375395;19;20646;-68
2023/01/09 10:19:09;;;;;;;0.10;0.10;;;;;;;;;;7375985;19;20615;-68
2023/01/09 10:21:41;;;;;;;0.10;0.10;;;;;;;;;;7376545;19;20764;-67
2023/01/09 10:24:15;;;;;;;0.10;0.10;;;;;;;;;;7375877;19;20600;-68
2023/01/09 10:26:49;;;;;;;0.00;0.00;;;;;;;;;;7374811;19;20688;-68
2023/01/09 10:29:28;;;;;;;0.00;0.00;;;;;;;;;;7375716;19;20630;-68
2023/01/09 10:32:03;;;;;;;0.10;0.10;;;;;;;;;;7377091;19;21106;-68
2023/01/09 10:34:38;;;;;;;0.10;0.10;;;;;;;;;;7375834;19;20714;-67
2023/01/09 10:37:10;;;;;;;0.10;0.10;;;;;;;;;;7374860;19;20745;-67
2023/01/09 10:39:42;;;;;;;0.10;0.10;;;;;;;;;;7377336;19;20571;-68
2023/01/09 10:42:17;;;;;;;0.10;0.10;;;;;;;;;;7373762;19;20622;-67
2023/01/09 10:44:49;;;;;;;0.00;0.00;;;;;;;;;;7375150;19;20732;-67
2023/01/09 10:47:19;;;;;;;0.00;0.00;;;;;;;;;;7375486;19;20745;-68
2023/01/09 10:49:49;;;;;;;0.10;0.10;;;;;;;;;;7375700;19;20709;-67
2023/01/09 10:52:19;;;;;;;0.10;0.10;;;;;;;;;;7374439;19;20687;-67
2023/01/09 10:54:51;;;;;;;0.10;0.10;;;;;;;;;;7375637;19;20595;-67
2023/01/09 10:57:29;;;;;;;0.10;0.10;;;;;;;;;;7373022;19;20770;-67
2023/01/09 10:59:58;;;;;;;0.10;0.10;;;;;;;;;;7375592;19;20651;-67
2023/01/09 11:02:28;;;;;;;0.10;0.10;;;;;;;;;;7373994;19;20692;-67
2023/01/09 11:04:57;;;;;;;0.00;0.00;;;;;;;;;;7374786;19;20632;-67
2023/01/09 11:07:29;;;;;;;0.10;0.10;;;;;;;;;;7374383;19;20631;-68
2023/01/09 11:09:58;;;;;;;0.10;0.10;;;;;;;;;;7373775;19;20733;-67
2023/01/09 11:12:31;;;;;;;0.10;0.10;;;;;;;;;;7375567;19;20718;-67
2023/01/09 11:15:20;;;;;;;0.10;0.10;;;;;;;;;;7374316;19;20737;-67
2023/01/09 11:17:49;;;;;;;0.10;0.10;;;;;;;;;;7373595;19;20663;-68
2023/01/09 11:20:19;;;;;;;0.00;0.00;;;;;;;;;;7373126;19;20619;-68
2023/01/09 11:22:49;;;;;;;0.10;0.10;;;;;;;;;;7374177;19;20770;-68
2023/01/09 11:25:20;;;;;;;0.03;0.03;;;;;;;;;;7375061;19;20638;-67
2023/01/09 11:28:05;;;;;;;0.10;0.10;;;;;;;;;;7372771;19;20789;-67
2023/01/09 11:30:35;;;;;;;0.00;0.00;;;;;;;;;;7373647;19;20763;-67
2023/01/09 11:33:14;;;;;;;0.10;0.10;;;;;;;;;;7374611;19;20661;-67
2023/01/09 11:35:56;;;;;;;0.10;0.10;;;;;;;;;;7375398;19;20630;-67
2023/01/09 11:38:25;;;;;;;0.00;0.00;;;;;;;;;;7377293;19;20674;-67
2023/01/09 11:40:55;;;;;;;0.00;0.00;;;;;;;;;;7381444;19;20670;-67
2023/01/09 11:43:33;;;;;;;0.10;0.10;;;;;;;;;;7381849;19;20611;-67
2023/01/09 11:46:03;;;;;;;0.00;0.00;;;;;;;;;;7380188;19;20614;-68
2023/01/09 11:48:36;;;;;;;0.07;0.07;;;;;;;;;;7379188;19;20649;-67
2023/01/09 11:51:06;;;;;;;0.00;0.00;;;;;;;;;;7381427;19;20591;-67
2023/01/09 11:53:46;;;;;;;0.10;0.10;;;;;;;;;;7381322;19;20611;-67
2023/01/09 11:56:16;;;;;;;0.00;0.00;;;;;;;;;;7381933;19;20598;-67
2023/01/09 11:58:48;;;;;;;0.10;0.10;;;;;;;;;;7378539;19;20619;-68
2023/01/09 12:01:32;;;;;;;0.00;0.00;;;;;;;;;;7379923;19;20649;-68
2023/01/09 12:04:11;;;;;;;0.03;0.03;;;;;;;;;;7379920;19;20675;-67
2023/01/09 12:06:45;;;;;;;0.10;0.10;;;;;;;;;;7381255;19;20610;-68
2023/01/09 12:09:18;;;;;;;0.00;0.00;;;;;;;;;;7382073;19;20619;-68
2023/01/09 12:11:51;;;;;;;0.00;0.00;;;;;;;;;;7382137;19;20725;-67
2023/01/09 12:14:29;;;;;;;0.10;0.10;;;;;;;;;;7380162;19;20648;-67
2023/01/09 12:17:05;;;;;;;0.00;0.00;;;;;;;;;;7377510;19;20658;-67
2023/01/09 12:19:52;;;;;;;0.00;0.00;;;;;;;;;;7379487;19;21360;-68
2023/01/09 12:22:24;;;;;;;0.10;0.10;;;;;;;;;;7380770;19;20730;-67
2023/01/09 12:25:03;;;;;;;0.00;0.00;;;;;;;;;;7380135;19;20626;-67
2023/01/09 12:27:37;;;;;;;0.10;0.10;;;;;;;;;;7379206;19;20715;-67
2023/01/09 12:30:25;;;;;;;0.03;0.03;;;;;;;;;;7380802;19;20713;-67
2023/01/09 12:33:03;;;;;;;0.10;0.10;;;;;;;;;;7382558;19;20635;-67
2023/01/09 12:35:35;;;;;;;0.10;0.10;;;;;;;;;;7380685;19;21278;-67
2023/01/09 12:38:20;;;;;;;0.00;0.00;;;;;;;;;;7378728;19;20626;-67
2023/01/09 12:41:00;;;;;;;0.00;0.00;;;;;;;;;;7381345;19;20591;-68
2023/01/09 12:43:35;;;;;;;0.00;0.00;;;;;;;;;;7378710;19;20642;-66
2023/01/09 12:46:10;;;;;;;0.00;0.00;;;;;;;;;;7380470;19;20633;-67
2023/01/09 12:48:47;;;;;;;0.10;0.10;;;;;;;;;;7381406;19;20646;-68
2023/01/09 12:51:21;;;;;;;0.10;0.10;;;;;;;;;;7381365;19;20607;-68
2023/01/09 12:53:53;;;;;;;0.10;0.10;;;;;;;;;;7379483;19;20652;-68
2023/01/09 12:56:24;;;;;;;0.00;0.00;;;;;;;;;;7377654;19;20659;-68
2023/01/09 12:58:55;;;;;;;0.10;0.10;;;;;;;;;;7379162;19;20626;-68
2023/01/09 13:01:26;;;;;;;0.00;0.00;;;;;;;;;;7376799;19;20741;-67
2023/01/09 13:04:01;;;;;;;0.00;0.00;;;;;;;;;;7379410;19;20722;-67
2023/01/09 13:06:31;;;;;;;0.00;0.00;;;;;;;;;;7378134;19;20602;-67
2023/01/09 13:09:04;;;;;;;0.00;0.00;;;;;;;;;;7378164;19;20728;-67
2023/01/09 13:11:36;;;;;;;0.00;0.00;;;;;;;;;;7376407;19;20637;-67
2023/01/09 13:14:09;;;;;;;0.00;0.00;;;;;;;;;;7376552;19;20635;-68
2023/01/09 13:16:40;;;;;;;0.10;0.10;;;;;;;;;;7376767;19;20805;-67
2023/01/09 13:19:16;;;;;;;0.00;0.00;;;;;;;;;;7376537;19;20639;-68
2023/01/09 13:21:45;;;;;;;0.10;0.10;;;;;;;;;;7379437;19;20720;-67
2023/01/09 13:24:17;;;;;;;0.00;0.00;;;;;;;;;;7379008;19;20717;-67
2023/01/09 13:26:49;;;;;;;0.00;0.00;;;;;;;;;;7377381;19;20631;-68
2023/01/09 13:29:21;;;;;;;0.00;0.00;;;;;;;;;;7377065;19;20634;-68
2023/01/09 13:32:11;;;;;;;0.07;0.07;;;;;;;;;;7377451;19;20595;-67
2023/01/09 13:34:43;;;;;;;0.00;0.00;;;;;;;;;;7375141;19;20701;-67
2023/01/09 13:37:22;;;;;;;0.00;0.00;;;;;;;;;;7377377;19;20647;-66
2023/01/09 13:39:57;;;;;;;0.03;0.03;;;;;;;;;;7375298;19;20669;-67
2023/01/09 13:42:38;;;;;;;0.00;0.00;;;;;;;;;;7376466;19;20749;-67
2023/01/09 13:45:13;;;;;;;0.00;0.00;;;;;;;;;;7374911;19;20626;-67
2023/01/09 13:47:42;;;;;;;0.10;0.10;;;;;;;;;;7374953;19;20661;-67
2023/01/09 13:50:26;;;;;;;0.00;0.00;;;;;;;;;;7377926;19;21170;-67
2023/01/09 13:52:58;;;;;;;0.10;0.10;;;;;;;;;;7376199;19;20603;-67
2023/01/09 13:55:37;;;;;;;0.00;0.00;;;;;;;;;;7376997;19;20603;-68
2023/01/09 13:58:21;;;;;;;0.10;0.10;;;;;;;;;;7376506;19;20733;-67
2023/01/09 14:00:57;;;;;;;0.00;0.00;;;;;;;;;;7377338;19;20615;-67
2023/01/09 14:03:30;;;;;;;0.00;0.00;;;;;;;;;;7379081;19;20697;-66
2023/01/09 14:06:26;;;;;;;0.00;0.00;;;;;;;;;;7376970;19;20691;-67
2023/01/09 14:09:13;;;;;;;0.00;0.00;;;;;;;;;;7379137;19;20599;-67
2023/01/09 14:11:45;;;;;;;0.10;0.10;;;;;;;;;;7377990;19;20611;-67
2023/01/09 14:14:23;;;;;;;0.00;0.00;;;;;;;;;;7375727;19;20733;-68
2023/01/09 14:16:52;;;;;;;0.07;0.07;;;;;;;;;;7374420;19;20789;-67
2023/01/09 14:19:25;;;;;;;0.00;0.00;;;;;;;;;;7377592;19;20718;-67
2023/01/09 14:21:55;;;;;;;0.10;0.10;;;;;;;;;;7376511;19;20722;-68
2023/01/09 14:24:27;;;;;;;0.00;0.00;;;;;;;;;;7375749;19;20676;-67
2023/01/09 14:26:59;;;;;;;0.00;0.00;;;;;;;;;;7374109;19;20691;-67
2023/01/09 14:29:42;;;;;;;0.10;0.10;;;;;;;;;;7377640;19;20603;-68
2023/01/09 14:32:28;;;;;;;0.10;0.10;;;;;;;;;;7374712;19;20681;-67
2023/01/09 14:34:59;;;;;;;0.00;0.00;;;;;;;;;;7375680;19;20693;-67
2023/01/09 14:37:30;;;;;;;0.10;0.10;;;;;;;;;;7373550;19;20703;-67
2023/01/09 14:40:00;;;;;;;0.00;0.00;;;;;;;;;;7374937;19;20614;-67
2023/01/09 14:42:33;;;;;;;0.00;0.00;;;;;;;;;;7376552;19;20738;-67
2023/01/09 14:45:05;;;;;;;0.00;0.00;;;;;;;;;;7377580;19;20735;-67
2023/01/09 14:47:36;;;;;;;0.10;0.10;;;;;;;;;;7375351;19;20734;-68
2023/01/09 14:50:08;;;;;;;0.00;0.00;;;;;;;;;;7371231;19;20668;-67
2023/01/09 14:52:38;;;;;;;0.10;0.10;;;;;;;;;;7377224;19;20730;-67
2023/01/09 14:55:09;;;;;;;0.10;0.10;;;;;;;;;;7375697;19;20717;-67
2023/01/09 14:57:41;;;;;;;0.00;0.00;;;;;;;;;;7374542;19;20723;-67
2023/01/09 15:00:18;;;;;;;0.00;0.00;;;;;;;;;;7373081;19;20741;-67
2023/01/09 15:02:48;;;;;;;0.10;0.10;;;;;;;;;;7373389;19;20649;-67
2023/01/09 15:05:19;;;;;;;0.07;0.07;;;;;;;;;;7374336;19;20638;-68
2023/01/09 15:07:52;;;;;;;0.10;0.10;;;;;;;;;;7371750;19;21325;-67
2023/01/09 15:10:22;;;;;;;0.00;0.00;;;;;;;;;;7372487;19;20725;-68
2023/01/09 15:12:54;;;;;;;0.00;0.00;;;;;;;;;;7374987;19;20725;-68
2023/01/09 15:15:24;;;;;;;0.00;0.00;;;;;;;;;;7374636;19;20639;-67
2023/01/09 15:17:56;;;;;;;0.00;0.00;;;;;;;;;;7374146;19;20656;-67
2023/01/09 15:20:27;;;;;;;0.00;0.00;;;;;;;;;;7373253;19;20638;-67
2023/01/09 15:22:56;;;;;;;0.00;0.00;;;;;;;;;;7373534;19;20615;-67
2023/01/09 15:25:27;;;;;;;0.00;0.00;;;;;;;;;;7369762;19;20611;-67
2023/01/09 15:27:59;;;;;;;0.10;0.10;;;;;;;;;;7372753;19;20754;-67
2023/01/09 15:30:33;;;;;;;0.00;0.00;;;;;;;;;;7373066;19;20643;-67